createdAt,value
2019-06-10T00:02:08.213Z,16.00
2019-06-10T00:04:35.093Z,15.85
2019-06-10T00:07:03.780Z,15.87
2019-06-10T00:09:31.233Z,15.87
2019-06-10T00:11:58.398Z,15.59
2019-06-10T00:14:25.272Z,15.70
2019-06-10T00:16:51.947Z,15.87
2019-06-10T00:19:21.429Z,15.84
2019-06-10T00:21:47.272Z,15.85
2019-06-10T00:24:13.988Z,15.77
2019-06-10T00:26:41.328Z,15.74
2019-06-10T00:29:09.716Z,15.76
2019-06-10T00:31:36.882Z,15.80
2019-06-10T00:34:05.071Z,15.81
2019-06-10T00:36:32.501Z,15.72
2019-06-10T00:38:59.389Z,15.56
2019-06-10T00:41:26.074Z,15.56
2019-06-10T00:43:52.888Z,15.55
2019-06-10T00:46:21.227Z,15.57
2019-06-10T00:48:48.163Z,15.52
2019-06-10T00:51:14.824Z,15.52
2019-06-10T00:53:42.327Z,15.65
2019-06-10T00:56:12.155Z,15.57
2019-06-10T00:58:37.808Z,15.46
2019-06-10T01:01:05.981Z,15.39
2019-06-10T01:03:32.943Z,15.51
2019-06-10T01:06:01.579Z,15.48
2019-06-10T01:08:28.362Z,15.52
2019-06-10T01:10:55.192Z,15.45
2019-06-10T01:13:22.863Z,15.45
2019-06-10T01:15:51.099Z,15.51
2019-06-10T01:18:34.593Z,15.51
2019-06-10T01:20:47.575Z,15.34
2019-06-10T01:23:15.693Z,15.49
2019-06-10T01:25:42.815Z,15.54
2019-06-10T01:28:12.557Z,15.54
2019-06-10T01:30:41.011Z,15.60
2019-06-10T01:33:08.186Z,15.52
2019-06-10T01:35:35.893Z,15.52
2019-06-10T01:38:02.633Z,15.56
2019-06-10T01:40:31.401Z,15.52
2019-06-10T01:42:57.985Z,15.52
2019-06-10T01:45:24.755Z,15.49
2019-06-10T01:47:51.512Z,15.50
2019-06-10T01:50:19.620Z,15.45
2019-06-10T01:52:47.091Z,15.56
2019-06-10T01:55:15.300Z,15.39
2019-06-10T01:57:42.455Z,15.48
2019-06-10T02:00:17.045Z,15.49
2019-06-10T02:02:38.830Z,15.49
2019-06-10T02:05:06.191Z,15.39
2019-06-10T02:07:33.011Z,15.38
2019-06-10T02:10:01.135Z,15.28
2019-06-10T02:12:28.211Z,15.29
2019-06-10T02:14:54.849Z,15.20
2019-06-10T02:17:23.914Z,15.23
2019-06-10T02:19:51.043Z,15.23
2019-06-10T02:22:18.515Z,15.30
2019-06-10T02:24:46.468Z,15.37
2019-06-10T02:27:14.488Z,15.37
2019-06-10T02:29:41.499Z,15.32
2019-06-10T02:32:08.352Z,15.25
2019-06-10T02:34:42.774Z,15.25
2019-06-10T02:37:04.755Z,15.31
2019-06-10T02:39:37.603Z,15.31
2019-06-10T02:42:04.434Z,15.27
2019-06-10T02:44:34.339Z,15.37
2019-06-10T02:47:03.139Z,15.29
2019-06-10T02:49:51.555Z,15.28
2019-06-10T02:51:57.568Z,15.17
2019-06-10T02:54:31.339Z,15.21
2019-06-10T02:56:53.928Z,15.21
2019-06-10T02:59:26.604Z,15.20
2019-06-10T03:01:49.667Z,15.22
2019-06-10T03:04:18.127Z,15.15
2019-06-10T03:06:45.197Z,15.07
2019-06-10T03:09:14.152Z,15.05
2019-06-10T03:11:44.528Z,15.02
2019-06-10T03:14:09.911Z,15.10
2019-06-10T03:16:44.524Z,15.08
2019-06-10T03:19:13.192Z,15.00
2019-06-10T03:21:39.878Z,15.02
2019-06-10T03:24:06.631Z,14.95
2019-06-10T03:26:33.372Z,14.94
2019-06-10T03:29:02.521Z,14.94
2019-06-10T03:31:40.171Z,15.03
2019-06-10T03:33:57.336Z,15.00
2019-06-10T03:36:25.751Z,15.00
2019-06-10T03:38:53.753Z,15.00
2019-06-10T03:41:23.285Z,14.98
2019-06-10T03:43:49.311Z,14.99
2019-06-10T03:46:17.249Z,15.01
2019-06-10T03:48:44.186Z,15.08
2019-06-10T03:51:12.617Z,15.13
2019-06-10T03:53:39.771Z,15.14
2019-06-10T03:56:06.419Z,15.13
2019-06-10T03:58:33.083Z,15.24
2019-06-10T04:00:59.790Z,15.26
2019-06-10T04:03:28.099Z,15.22
2019-06-10T04:05:56.175Z,15.32
2019-06-10T04:08:23.941Z,15.34
2019-06-10T04:10:52.061Z,15.46
2019-06-10T04:13:19.488Z,15.52
2019-06-10T04:15:46.385Z,15.52
2019-06-10T04:18:13.173Z,15.62
2019-06-10T04:20:42.669Z,15.53
2019-06-10T04:23:08.550Z,15.56
2019-06-10T04:25:38.844Z,15.64
2019-06-10T04:28:05.531Z,15.67
2019-06-10T04:30:32.586Z,15.74
2019-06-10T04:32:59.470Z,15.74
2019-06-10T04:35:27.448Z,15.82
2019-06-10T04:37:54.790Z,15.99
2019-06-10T04:40:23.528Z,16.05
2019-06-10T04:42:52.403Z,15.97
2019-06-10T04:45:18.762Z,16.12
2019-06-10T04:47:45.675Z,16.16
2019-06-10T04:50:24.044Z,16.28
2019-06-10T04:52:43.076Z,16.14
2019-06-10T04:55:12.871Z,16.26
2019-06-10T04:57:39.619Z,16.35
2019-06-10T05:00:13.835Z,16.57
2019-06-10T05:02:36.343Z,16.71
2019-06-10T05:05:03.632Z,16.60
2019-06-10T05:07:36.017Z,16.72
2019-06-10T05:09:59.292Z,16.83
2019-06-10T05:12:26.780Z,16.84
2019-06-10T05:14:54.691Z,16.84
2019-06-10T05:17:22.225Z,16.94
2019-06-10T05:19:49.964Z,16.81
2019-06-10T05:22:17.693Z,16.94
2019-06-10T05:24:44.434Z,17.01
2019-06-10T05:27:12.524Z,17.10
2019-06-10T05:29:39.456Z,17.12
2019-06-10T05:32:06.252Z,17.21
2019-06-10T05:34:34.680Z,17.33
2019-06-10T05:37:02.701Z,17.32
2019-06-10T05:39:30.730Z,17.26
2019-06-10T05:41:58.233Z,17.33
2019-06-10T05:44:25.795Z,17.49
2019-06-10T05:46:53.496Z,17.69
2019-06-10T05:49:24.172Z,17.73
2019-06-10T05:51:52.681Z,17.77
2019-06-10T05:54:23.032Z,17.80
2019-06-10T05:56:52.045Z,17.73
2019-06-10T05:59:18.425Z,17.89
2019-06-10T06:01:45.115Z,18.01
2019-06-10T06:04:12.686Z,17.85
2019-06-10T06:06:42.487Z,17.93
2019-06-10T06:09:08.493Z,17.96
2019-06-10T06:11:35.391Z,18.12
2019-06-10T06:14:02.791Z,18.27
2019-06-10T06:16:30.494Z,18.40
2019-06-10T06:18:58.270Z,18.47
2019-06-10T06:21:31.489Z,18.71
2019-06-10T06:23:53.733Z,18.73
2019-06-10T06:26:23.535Z,18.66
2019-06-10T06:28:53.303Z,18.58
2019-06-10T06:31:19.502Z,18.73
2019-06-10T06:33:47.239Z,18.92
2019-06-10T06:36:13.994Z,18.98
2019-06-10T06:38:40.805Z,18.85
2019-06-10T06:41:07.488Z,19.11
2019-06-10T06:43:39.990Z,19.20
2019-06-10T06:46:02.910Z,19.11
2019-06-10T06:48:30.010Z,18.98
2019-06-10T06:51:04.374Z,19.03
2019-06-10T06:53:33.090Z,19.01
2019-06-10T06:55:56.053Z,19.08
2019-06-10T06:58:23.262Z,19.23
2019-06-10T07:01:03.725Z,19.41
2019-06-10T07:03:18.771Z,19.21
2019-06-10T07:05:45.592Z,19.19
2019-06-10T07:08:18.622Z,19.14
2019-06-10T07:10:46.004Z,19.14
2019-06-10T07:13:12.995Z,19.23
2019-06-10T07:15:48.001Z,19.19
2019-06-10T07:18:14.710Z,19.10
2019-06-10T07:20:45.620Z,19.18
2019-06-10T07:23:12.950Z,19.11
2019-06-10T07:25:42.254Z,19.12
2019-06-10T07:28:08.335Z,19.14
2019-06-10T07:30:38.873Z,19.23
2019-06-10T07:33:03.784Z,19.27
2019-06-10T07:35:32.599Z,19.17
2019-06-10T07:37:59.190Z,19.08
2019-06-10T07:40:25.907Z,19.10
2019-06-10T07:42:53.054Z,18.88
2019-06-10T07:45:22.156Z,18.92
2019-06-10T07:47:49.094Z,18.96
2019-06-10T07:50:18.371Z,18.62
2019-06-10T07:52:46.805Z,18.71
2019-06-10T07:55:15.155Z,18.63
2019-06-10T07:57:43.924Z,18.55
2019-06-10T08:00:13.440Z,18.48
2019-06-10T08:02:42.813Z,18.55
2019-06-10T08:05:08.993Z,18.59
2019-06-10T08:07:36.727Z,18.70
2019-06-10T08:10:05.891Z,18.69
2019-06-10T08:12:32.670Z,18.78
2019-06-10T08:15:02.558Z,18.95
2019-06-10T08:17:28.132Z,19.30
2019-06-10T08:19:54.884Z,19.36
2019-06-10T08:22:31.228Z,19.57
2019-06-10T08:24:52.394Z,19.68
2019-06-10T08:27:18.904Z,19.63
2019-06-10T08:29:49.162Z,19.69
2019-06-10T08:32:14.452Z,19.72
2019-06-10T08:34:44.625Z,20.03
2019-06-10T08:37:09.909Z,19.88
2019-06-10T08:39:36.574Z,19.91
2019-06-10T08:42:03.366Z,19.92
2019-06-10T08:44:32.603Z,20.00
2019-06-10T08:46:58.713Z,19.97
2019-06-10T08:49:26.551Z,20.14
2019-06-10T08:51:53.776Z,20.08
2019-06-10T08:54:23.262Z,20.06
2019-06-10T08:56:50.904Z,20.19
2019-06-10T08:59:17.849Z,20.30
2019-06-10T09:01:48.387Z,20.52
2019-06-10T09:04:13.487Z,20.56
2019-06-10T09:06:43.314Z,20.69
2019-06-10T09:09:09.027Z,20.78
2019-06-10T09:11:35.784Z,20.83
2019-06-10T09:14:02.688Z,20.81
2019-06-10T09:16:31.978Z,20.92
2019-06-10T09:18:58.095Z,20.96
2019-06-10T09:21:24.896Z,21.00
2019-06-10T09:23:59.061Z,20.99
2019-06-10T09:26:22.694Z,21.08
2019-06-10T09:28:52.670Z,20.96
2019-06-10T09:31:17.421Z,20.96
2019-06-10T09:33:49.863Z,20.89
2019-06-10T09:36:12.758Z,20.70
2019-06-10T09:38:40.658Z,20.70
2019-06-10T09:41:08.238Z,20.65
2019-06-10T09:43:34.915Z,20.65
2019-06-10T09:46:03.576Z,20.73
2019-06-10T09:48:30.472Z,20.54
2019-06-10T09:50:58.967Z,20.63
2019-06-10T09:53:32.844Z,20.64
2019-06-10T09:55:55.726Z,20.63
2019-06-10T09:58:23.766Z,20.62
2019-06-10T10:00:58.333Z,20.68
2019-06-10T10:03:25.579Z,20.61
2019-06-10T10:05:59.418Z,20.80
2019-06-10T10:08:23.268Z,20.98
2019-06-10T10:10:55.914Z,21.25
2019-06-10T10:13:18.510Z,21.61
2019-06-10T10:15:45.649Z,21.56
2019-06-10T10:18:13.401Z,21.51
2019-06-10T10:20:44.833Z,21.51
2019-06-10T11:17:47.294Z,19.50
2019-06-10T11:20:14.252Z,19.42
2019-06-10T11:22:43.278Z,19.58
2019-06-10T11:25:09.649Z,19.51
2019-06-10T11:27:36.366Z,19.45
2019-06-10T11:30:05.718Z,19.48
2019-06-10T11:32:32.822Z,19.62
2019-06-10T11:34:59.693Z,19.62
2019-06-10T11:37:26.395Z,19.52
2019-06-10T11:39:54.875Z,19.58
2019-06-10T11:42:23.309Z,19.89
2019-06-10T11:44:51.341Z,20.06
2019-06-10T11:47:18.887Z,20.19
2019-06-10T11:49:46.853Z,20.37
2019-06-10T11:52:13.872Z,20.52
2019-06-10T11:54:53.658Z,20.45
2019-06-10T11:57:09.159Z,20.70
2019-06-10T11:59:35.959Z,20.74
2019-06-10T12:02:06.004Z,20.66
2019-06-10T12:04:31.459Z,20.89
2019-06-10T12:06:59.068Z,21.12
2019-06-10T12:09:26.032Z,21.21
2019-06-10T12:11:55.133Z,21.39
2019-06-10T12:14:26.290Z,21.40
2019-06-10T12:17:17.598Z,21.54
2019-06-10T12:19:19.004Z,21.36
2019-06-10T12:21:45.752Z,21.16
2019-06-10T12:24:12.889Z,21.31
2019-06-10T12:26:43.428Z,21.30
2019-06-10T12:29:12.244Z,21.24
2019-06-10T12:31:38.480Z,21.33
2019-06-10T12:34:06.021Z,21.45
2019-06-10T12:36:33.195Z,21.56
2019-06-10T12:39:06.755Z,21.51
2019-06-10T12:41:30.379Z,21.42
2019-06-10T12:43:58.368Z,21.54
2019-06-10T12:46:25.183Z,21.56
2019-06-10T12:48:55.871Z,21.35
2019-06-10T12:51:22.737Z,21.21
2019-06-10T12:53:49.718Z,21.04
2019-06-10T12:56:16.413Z,20.91
2019-06-10T12:58:43.527Z,20.96
2019-06-10T13:01:10.429Z,20.88
2019-06-10T13:03:37.236Z,20.96
2019-06-10T13:06:07.216Z,21.06
2019-06-10T13:08:33.968Z,21.07
2019-06-10T13:11:02.017Z,20.92
2019-06-10T13:13:29.253Z,20.84
2019-06-10T13:15:56.296Z,20.80
2019-06-10T13:18:23.950Z,20.80
2019-06-10T13:20:53.495Z,20.96
2019-06-10T13:23:28.390Z,20.87
2019-06-10T13:25:55.429Z,20.90
2019-06-10T13:28:16.820Z,21.01
2019-06-10T13:30:43.494Z,20.81
2019-06-10T13:33:12.072Z,20.95
2019-06-10T13:35:38.827Z,20.83
2019-06-10T13:38:07.286Z,20.66
2019-06-10T13:40:35.294Z,20.63
2019-06-10T13:43:02.023Z,20.63
2019-06-10T13:45:28.670Z,20.70
2019-06-10T13:47:55.366Z,20.63
2019-06-10T13:50:25.026Z,20.46
2019-06-10T13:52:52.159Z,20.42
2019-06-10T13:55:19.422Z,20.55
2019-06-10T13:57:46.191Z,20.75
2019-06-10T14:00:14.620Z,20.70
2019-06-10T14:02:43.107Z,20.66
2019-06-10T14:05:13.475Z,20.91
2019-06-10T14:07:38.812Z,20.74
2019-06-10T14:10:09.632Z,20.63
2019-06-10T14:12:34.437Z,20.64
2019-06-10T14:15:04.110Z,20.58
2019-06-10T14:17:32.761Z,20.55
2019-06-10T14:19:59.413Z,20.36
2019-06-10T14:22:26.115Z,20.34
2019-06-10T14:24:53.893Z,20.10
2019-06-10T14:27:24.042Z,20.00
2019-06-10T14:29:49.488Z,20.05
2019-06-10T14:32:16.207Z,20.20
2019-06-10T14:34:43.021Z,20.12
2019-06-10T14:37:10.439Z,20.11
2019-06-10T14:39:38.416Z,19.92
2019-06-10T14:42:06.888Z,19.86
2019-06-10T14:44:33.714Z,20.01
2019-06-10T14:47:02.762Z,20.08
2019-06-10T14:49:29.124Z,20.14
2019-06-10T14:51:55.860Z,20.12
2019-06-10T14:54:22.894Z,20.20
2019-06-10T14:56:56.374Z,20.27
2019-06-10T14:59:18.515Z,20.31
2019-06-10T15:01:45.217Z,20.33
2019-06-10T15:04:14.706Z,20.50
2019-06-10T15:06:43.225Z,20.67
2019-06-10T15:09:09.530Z,20.78
2019-06-10T15:11:36.213Z,20.58
2019-06-10T15:14:03.413Z,20.63
2019-06-10T15:16:33.438Z,20.54
2019-06-10T15:19:13.778Z,20.64
2019-06-10T15:21:27.407Z,20.42
2019-06-10T15:23:54.071Z,20.56
2019-06-10T15:26:20.781Z,20.62
2019-06-10T15:28:47.494Z,20.92
2019-06-10T15:31:16.808Z,20.96
2019-06-10T15:33:43.869Z,21.03
2019-06-10T15:36:11.240Z,21.14
2019-06-10T15:38:37.929Z,21.16
2019-06-10T15:41:04.668Z,21.10
2019-06-10T15:43:33.113Z,20.93
2019-06-10T15:46:00.080Z,20.97
2019-06-10T15:48:26.824Z,20.91
2019-06-10T15:50:53.632Z,20.86
2019-06-10T15:53:25.371Z,20.92
2019-06-10T15:56:10.163Z,21.00
2019-06-10T15:58:19.943Z,21.10
2019-06-10T16:00:47.457Z,21.23
2019-06-10T16:03:16.184Z,21.07
2019-06-10T16:05:42.810Z,21.13
2019-06-10T16:08:09.567Z,21.09
2019-06-10T16:10:36.334Z,20.97
2019-06-10T16:13:03.512Z,20.89
2019-06-10T16:15:32.898Z,20.74
2019-06-10T16:17:59.031Z,20.58
2019-06-10T16:20:25.755Z,20.39
2019-06-10T16:22:52.556Z,20.01
2019-06-10T16:25:20.035Z,19.97
2019-06-10T16:27:50.853Z,20.12
2019-06-10T16:30:16.067Z,20.11
2019-06-10T16:32:46.343Z,20.10
2019-06-10T16:35:14.762Z,20.05
2019-06-10T16:37:42.251Z,20.23
2019-06-10T16:40:09.171Z,20.31
2019-06-10T16:42:35.835Z,20.03
2019-06-10T16:45:04.514Z,20.07
2019-06-10T16:47:32.726Z,20.16
2019-06-10T16:49:59.658Z,20.04
2019-06-10T16:52:27.540Z,20.06
2019-06-10T16:54:54.467Z,20.13
2019-06-10T16:57:23.875Z,20.34
2019-06-10T16:59:51.961Z,20.15
2019-06-10T17:02:19.213Z,20.04
2019-06-10T17:04:47.078Z,19.99
2019-06-10T17:07:13.949Z,20.03
2019-06-10T17:09:42.175Z,19.87
2019-06-10T17:12:09.012Z,19.76
2019-06-10T17:14:35.754Z,19.64
2019-06-10T17:17:03.621Z,19.76
2019-06-10T17:19:33.174Z,19.76
2019-06-10T17:21:59.282Z,19.91
2019-06-10T17:24:27.644Z,19.92
2019-06-10T17:26:54.853Z,19.86
2019-06-10T17:29:24.382Z,19.93
2019-06-10T17:31:50.331Z,19.85
2019-06-10T17:34:17.097Z,19.82
2019-06-10T17:36:43.884Z,19.74
2019-06-10T17:39:12.506Z,19.70
2019-06-10T17:41:39.366Z,19.66
2019-06-10T17:44:06.260Z,19.59
2019-06-10T17:46:35.282Z,19.55
2019-06-10T17:49:02.619Z,19.51
2019-06-10T17:51:30.970Z,19.57
2019-06-10T17:53:58.144Z,19.57
2019-06-10T17:56:26.401Z,19.38
2019-06-10T17:58:57.643Z,19.39
2019-06-10T18:01:23.848Z,19.55
2019-06-10T18:03:52.923Z,19.50
2019-06-10T18:06:19.587Z,19.40
2019-06-10T18:08:46.355Z,19.36
2019-06-10T18:11:13.092Z,19.44
2019-06-10T18:13:39.792Z,19.33
2019-06-10T18:16:06.473Z,19.23
2019-06-10T18:18:36.169Z,19.29
2019-06-10T18:21:03.456Z,19.23
2019-06-10T18:23:30.899Z,19.29
2019-06-10T18:25:57.847Z,19.02
2019-06-10T18:28:24.927Z,19.21
2019-06-10T18:30:53.290Z,19.16
2019-06-10T18:33:22.723Z,19.14
2019-06-10T18:35:48.794Z,19.05
2019-06-10T18:38:15.492Z,19.05
2019-06-10T18:40:42.942Z,19.13
2019-06-10T18:43:12.033Z,19.04
2019-06-10T18:45:39.257Z,18.95
2019-06-10T18:48:07.061Z,18.80
2019-06-10T18:50:36.178Z,18.80
2019-06-10T18:53:04.133Z,18.77
2019-06-10T18:55:34.179Z,18.72
2019-06-10T18:57:59.658Z,18.83
2019-06-10T19:00:40.414Z,18.82
2019-06-10T19:03:09.312Z,18.81
2019-06-10T19:05:24.034Z,18.86
2019-06-10T19:07:52.878Z,18.71
2019-06-10T19:10:19.868Z,18.76
2019-06-10T19:12:46.809Z,18.61
2019-06-10T19:15:13.719Z,18.54
2019-06-10T19:17:43.922Z,18.45
2019-06-10T19:20:09.827Z,18.56
2019-06-10T19:22:37.897Z,18.46
2019-06-10T19:25:06.252Z,18.42
2019-06-10T19:27:34.694Z,18.47
2019-06-10T19:30:01.553Z,18.33
2019-06-10T19:32:28.212Z,18.42
2019-06-10T19:34:54.911Z,18.33
2019-06-10T19:37:22.119Z,18.34
2019-06-10T19:39:53.191Z,18.30
2019-06-10T19:42:17.664Z,18.23
2019-06-10T19:44:45.993Z,18.22
2019-06-10T19:47:13.047Z,18.27
2019-06-10T19:49:41.178Z,18.20
2019-06-10T19:52:08.408Z,18.27
2019-06-10T19:54:35.170Z,18.20
2019-06-10T19:57:02.649Z,18.17
2019-06-10T19:59:29.725Z,18.18
2019-06-10T20:01:56.440Z,18.24
2019-06-10T20:04:23.134Z,18.15
2019-06-10T20:06:50.754Z,18.22
2019-06-10T20:09:18.503Z,18.06
2019-06-10T20:11:47.287Z,18.04
2019-06-10T20:14:13.793Z,17.86
2019-06-10T20:16:42.979Z,17.99
2019-06-10T20:19:09.072Z,17.93
2019-06-10T20:21:36.039Z,17.93
2019-06-10T20:24:03.420Z,17.86
2019-06-10T20:26:30.088Z,17.85
2019-06-10T20:28:56.853Z,17.89
2019-06-10T20:31:23.551Z,17.63
2019-06-10T20:33:52.356Z,17.53
2019-06-10T20:36:25.630Z,17.44
2019-06-10T20:38:48.929Z,17.28
2019-06-10T20:41:16.353Z,17.10
2019-06-10T20:43:44.309Z,16.84
2019-06-10T20:46:13.078Z,16.77
2019-06-10T20:48:41.413Z,17.01
2019-06-10T20:51:08.752Z,17.08
2019-06-10T20:53:35.434Z,17.02
2019-06-10T20:56:03.767Z,16.94
2019-06-10T20:58:32.950Z,17.04
2019-06-10T21:00:59.555Z,17.09
2019-06-10T21:03:26.487Z,17.07
2019-06-10T21:05:53.588Z,17.01
2019-06-10T21:08:22.530Z,17.06
2019-06-10T21:10:50.165Z,16.98
2019-06-10T21:13:17.626Z,17.09
2019-06-10T21:15:47.460Z,17.06
2019-06-10T21:18:13.325Z,16.97
2019-06-10T21:20:41.329Z,16.95
2019-06-10T21:23:08.810Z,17.05
2019-06-10T21:25:36.534Z,16.94
2019-06-10T21:28:03.615Z,16.81
2019-06-10T21:30:38.419Z,16.71
2019-06-10T21:32:59.282Z,16.66
2019-06-10T21:35:25.944Z,16.64
2019-06-10T21:37:52.712Z,16.66
2019-06-10T21:40:19.447Z,16.74
2019-06-10T21:42:46.191Z,16.69
2019-06-10T21:45:14.772Z,16.74
2019-06-10T21:47:44.083Z,16.73
2019-06-10T21:50:12.417Z,16.81
2019-06-10T21:52:39.354Z,16.70
2019-06-10T21:55:06.672Z,16.69
2019-06-10T21:57:33.943Z,16.75
2019-06-10T22:00:03.763Z,16.65
2019-06-10T22:02:32.287Z,16.74
2019-06-10T22:04:58.632Z,16.82
2019-06-10T22:07:25.341Z,16.68
2019-06-10T22:09:54.722Z,16.75
2019-06-10T22:12:21.676Z,16.72
2019-06-10T22:14:48.378Z,16.73
2019-06-10T22:17:15.132Z,16.65
2019-06-10T22:19:42.764Z,16.65
2019-06-10T22:22:09.681Z,16.65
2019-06-10T22:24:36.531Z,16.51
2019-06-10T22:27:03.561Z,16.53
2019-06-10T22:29:32.234Z,16.52
2019-06-10T22:31:58.944Z,16.53
2019-06-10T22:34:25.692Z,16.41
2019-06-10T22:36:54.430Z,16.44
2019-06-10T22:39:22.354Z,16.26
2019-06-10T22:41:49.365Z,16.25
2019-06-10T22:44:18.790Z,16.14
2019-06-10T22:46:45.478Z,16.15
2019-06-10T22:49:13.499Z,15.93
2019-06-10T22:51:42.898Z,16.04
2019-06-10T22:54:09.371Z,16.06
2019-06-10T22:56:36.080Z,15.96
2019-06-10T22:59:03.428Z,15.93
2019-06-10T23:01:36.956Z,15.88
2019-06-10T23:04:01.045Z,15.83
2019-06-10T23:06:27.896Z,15.84
2019-06-10T23:08:56.330Z,15.69
2019-06-10T23:11:24.035Z,15.73
2019-06-10T23:13:53.358Z,15.63
2019-06-10T23:16:19.459Z,15.54
2019-06-10T23:18:46.190Z,15.46
2019-06-10T23:21:13.426Z,15.49
2019-06-10T23:23:40.182Z,15.52
2019-06-10T23:26:06.865Z,15.51
2019-06-10T23:28:33.586Z,15.53
2019-06-10T23:31:02.438Z,15.36
2019-06-10T23:33:29.213Z,15.36
2019-06-10T23:35:56.515Z,15.32
2019-06-10T23:38:23.802Z,15.25
2019-06-10T23:40:52.765Z,15.34
2019-06-10T23:43:19.771Z,15.22
2019-06-10T23:45:46.447Z,15.27
2019-06-10T23:48:13.518Z,15.35
2019-06-10T23:50:40.341Z,15.25
2019-06-10T23:53:07.894Z,15.27
2019-06-10T23:55:34.879Z,15.33
2019-06-10T23:58:02.486Z,15.22
